Time;durP1;ratioP1;P1;durP2;ratioP2;P2;SDS_P1;SDS_P2;PMS_P1;PMS_P2;Temp;Humidity;BMP_temperature;BMP_pressure;BME280_temperature;BME280_humidity;BME280_pressure;Samples;Min_cycle;Max_cycle;Signal;HPM_P1;HPM_P2
2023/04/23 00:01:41;;;;;;;3.65;1.90;;;16.30;57.10;;;;;;4969812;28;20022;-90
2023/04/23 00:04:08;;;;;;;4.97;1.92;;;16.30;57.20;;;;;;4953186;28;20046;-89
2023/04/23 00:06:34;;;;;;;6.43;2.33;;;16.30;57.40;;;;;;4972384;28;20460;-89
2023/04/23 00:09:00;;;;;;;3.45;2.00;;;16.30;57.40;;;;;;4970535;28;20181;-89
2023/04/23 00:11:27;;;;;;;5.43;2.08;;;16.20;57.40;;;;;;4969033;28;20520;-89
2023/04/23 00:13:53;;;;;;;4.00;1.80;;;16.20;57.50;;;;;;4975682;28;20502;-89
2023/04/23 00:16:20;;;;;;;3.75;2.30;;;16.20;57.70;;;;;;4975813;28;20051;-87
2023/04/23 00:18:47;;;;;;;5.57;1.77;;;16.20;57.80;;;;;;4947072;28;20050;-90
2023/04/23 00:21:12;;;;;;;4.55;2.13;;;16.20;57.90;;;;;;4967749;28;20097;-90
2023/04/23 00:23:39;;;;;;;3.45;1.92;;;16.20;57.90;;;;;;4970851;28;20031;-90
2023/04/23 00:26:05;;;;;;;3.05;2.20;;;16.20;58.10;;;;;;4970221;28;20035;-89
2023/04/23 00:28:31;;;;;;;8.32;2.80;;;16.10;58.20;;;;;;4968682;28;20026;-89
2023/04/23 00:30:56;;;;;;;3.05;2.17;;;16.10;58.30;;;;;;4964766;28;20055;-89
2023/04/23 00:33:22;;;;;;;6.22;2.00;;;16.10;58.30;;;;;;4957093;28;20400;-89
2023/04/23 00:35:48;;;;;;;6.57;2.63;;;16.10;58.40;;;;;;4962769;28;20405;-89
2023/04/23 00:38:14;;;;;;;5.32;2.42;;;16.00;58.40;;;;;;4967092;28;20046;-90
2023/04/23 00:40:40;;;;;;;6.63;2.78;;;16.00;58.50;;;;;;4958243;28;20103;-88
2023/04/23 00:43:06;;;;;;;3.88;2.40;;;16.00;58.70;;;;;;4970134;28;20498;-90
2023/04/23 00:45:32;;;;;;;4.00;2.47;;;15.90;58.70;;;;;;4968379;28;20031;-90
2023/04/23 00:47:58;;;;;;;3.83;2.25;;;15.90;58.90;;;;;;4965278;28;20027;-90
2023/04/23 00:50:24;;;;;;;4.45;2.50;;;15.90;59.00;;;;;;4966943;28;20027;-90
2023/04/23 00:52:50;;;;;;;7.25;2.58;;;15.90;59.20;;;;;;4959368;28;20510;-90
2023/04/23 00:55:19;;;;;;;5.15;2.08;;;15.90;59.30;;;;;;4964218;28;20035;-90
2023/04/23 00:57:46;;;;;;;4.80;2.40;;;15.90;59.40;;;;;;4964206;28;20031;-89
2023/04/23 01:00:13;;;;;;;6.82;2.70;;;15.90;59.50;;;;;;4966746;28;20051;-89
2023/04/23 01:02:41;;;;;;;10.88;4.53;;;15.90;59.60;;;;;;4965507;28;20031;-90
2023/04/23 01:05:09;;;;;;;14.15;5.50;;;15.70;59.50;;;;;;4967378;28;20137;-90
2023/04/23 01:07:36;;;;;;;16.45;5.47;;;15.80;59.60;;;;;;4977437;28;20029;-87
2023/04/23 01:10:04;;;;;;;11.30;5.10;;;15.80;59.70;;;;;;4978018;28;20251;-89
2023/04/23 01:12:30;;;;;;;8.20;4.40;;;15.80;59.90;;;;;;4963939;28;20115;-89
2023/04/23 01:14:56;;;;;;;10.98;4.28;;;15.80;59.90;;;;;;4961003;28;20113;-90
2023/04/23 01:17:22;;;;;;;9.52;4.38;;;15.80;59.80;;;;;;4967399;28;20030;-92
2023/04/23 01:19:48;;;;;;;7.57;3.75;;;15.80;59.90;;;;;;4962530;28;20031;-90
2023/04/23 01:22:14;;;;;;;11.73;3.55;;;15.80;59.90;;;;;;4967084;28;20407;-90
2023/04/23 01:24:41;;;;;;;7.75;3.83;;;15.80;60.00;;;;;;4967945;28;20042;-90
2023/04/23 01:27:08;;;;;;;9.73;3.58;;;15.80;60.20;;;;;;4960531;28;20117;-88
2023/04/23 01:29:34;;;;;;;9.65;3.15;;;15.80;60.30;;;;;;4964101;28;20073;-88
2023/04/23 01:32:01;;;;;;;5.80;3.30;;;15.70;60.30;;;;;;4965760;28;20031;-89
2023/04/23 01:34:30;;;;;;;7.40;3.22;;;15.70;60.40;;;;;;4963630;28;20109;-91
2023/04/23 01:36:57;;;;;;;5.93;3.20;;;15.70;60.60;;;;;;4974311;28;20027;-91
2023/04/23 01:39:24;;;;;;;4.40;2.78;;;15.70;60.60;;;;;;4964316;28;20574;-90
2023/04/23 01:41:49;;;;;;;6.22;2.80;;;15.70;60.60;;;;;;4963337;28;20438;-90
2023/04/23 01:44:15;;;;;;;6.32;2.45;;;15.70;60.70;;;;;;4967906;28;20049;-88
2023/04/23 01:46:41;;;;;;;5.32;2.65;;;15.70;60.80;;;;;;4964700;28;20078;-89
2023/04/23 01:49:07;;;;;;;4.85;2.42;;;15.70;60.90;;;;;;4959945;28;20118;-90
2023/04/23 01:51:34;;;;;;;7.40;2.55;;;15.60;60.80;;;;;;4966170;28;20022;-90
2023/04/23 01:54:00;;;;;;;4.20;2.40;;;15.60;61.00;;;;;;4966263;28;20119;-89
2023/04/23 01:56:27;;;;;;;6.50;2.75;;;15.60;61.20;;;;;;4959769;28;20105;-88
2023/04/23 01:58:53;;;;;;;5.40;2.72;;;15.60;61.50;;;;;;4959254;28;20062;-89
2023/04/23 02:01:19;;;;;;;8.35;2.88;;;15.60;61.60;;;;;;4966533;28;20459;-90
2023/04/23 02:03:45;;;;;;;3.20;2.38;;;15.60;61.70;;;;;;4966543;28;20057;-90
2023/04/23 02:06:12;;;;;;;5.22;2.50;;;15.50;61.70;;;;;;4964879;28;20034;-89
2023/04/23 02:08:38;;;;;;;4.45;2.13;;;15.50;61.80;;;;;;4964586;28;20022;-90
2023/04/23 02:11:05;;;;;;;3.10;2.13;;;15.50;61.80;;;;;;4970661;28;20030;-90
2023/04/23 02:13:31;;;;;;;8.10;2.20;;;15.50;61.80;;;;;;4963232;28;20041;-89
2023/04/23 02:15:57;;;;;;;7.07;2.42;;;15.50;61.90;;;;;;4971858;28;20034;-91
2023/04/23 02:18:23;;;;;;;4.70;2.05;;;15.50;61.70;;;;;;4966629;28;20471;-90
2023/04/23 02:20:49;;;;;;;5.00;1.80;;;15.50;61.70;;;;;;4967380;28;20036;-89
2023/04/23 02:23:15;;;;;;;2.30;1.70;;;15.50;61.30;;;;;;4969662;28;20479;-91
2023/04/23 02:25:41;;;;;;;4.95;2.10;;;15.40;61.10;;;;;;4966380;28;20094;-89
2023/04/23 02:28:07;;;;;;;5.68;1.85;;;15.40;61.30;;;;;;4967941;28;20121;-90
2023/04/23 02:30:36;;;;;;;2.40;1.20;;;15.40;61.00;;;;;;4968736;28;20105;-89
2023/04/23 02:33:02;;;;;;;3.55;1.67;;;15.40;61.10;;;;;;4970342;28;20502;-90
2023/04/23 02:35:29;;;;;;;5.63;1.42;;;15.40;61.00;;;;;;4967657;28;20031;-89
2023/04/23 02:37:55;;;;;;;4.28;1.65;;;15.40;61.00;;;;;;4968391;28;20045;-89
2023/04/23 02:40:21;;;;;;;3.22;1.50;;;15.30;60.50;;;;;;4967785;28;20546;-89
2023/04/23 02:42:48;;;;;;;2.35;1.40;;;15.40;60.70;;;;;;4966011;28;20086;-89
2023/04/23 02:45:13;;;;;;;5.38;1.73;;;15.30;60.50;;;;;;4969728;28;20026;-89
2023/04/23 02:47:39;;;;;;;4.25;1.63;;;15.30;60.40;;;;;;4957233;28;20026;-89
2023/04/23 02:50:06;;;;;;;5.30;1.60;;;15.30;60.20;;;;;;4964685;28;20035;-88
2023/04/23 02:52:33;;;;;;;4.70;1.45;;;15.30;60.00;;;;;;4966519;28;20027;-89
2023/04/23 02:55:02;;;;;;;4.85;1.88;;;15.30;59.90;;;;;;4968818;28;20034;-89
2023/04/23 02:57:28;;;;;;;3.38;1.60;;;15.30;60.00;;;;;;4963320;28;20041;-89
2023/04/23 02:59:54;;;;;;;2.30;1.52;;;15.20;59.90;;;;;;4969769;28;20054;-90
2023/04/23 03:02:19;;;;;;;4.90;1.80;;;15.30;59.90;;;;;;4964496;28;20031;-90
2023/04/23 03:04:45;;;;;;;5.70;2.03;;;15.30;59.90;;;;;;4968838;28;20023;-89
2023/04/23 03:07:12;;;;;;;4.20;1.83;;;15.30;59.90;;;;;;4964936;28;20364;-90
2023/04/23 03:09:38;;;;;;;3.50;1.38;;;15.30;60.30;;;;;;4968169;28;21082;-91
2023/04/23 03:12:04;;;;;;;3.60;1.60;;;15.30;60.20;;;;;;4971324;28;20034;-89
2023/04/23 03:14:30;;;;;;;2.45;1.73;;;15.30;60.10;;;;;;4972582;28;20525;-89
2023/04/23 03:16:56;;;;;;;5.03;1.40;;;15.30;60.10;;;;;;4971563;28;20132;-91
2023/04/23 03:19:21;;;;;;;2.72;1.40;;;15.30;60.20;;;;;;4961555;28;20109;-89
2023/04/23 03:21:47;;;;;;;5.25;1.73;;;15.30;60.30;;;;;;4970955;28;20428;-90
2023/04/23 03:24:14;;;;;;;3.70;1.70;;;15.30;60.40;;;;;;4966613;28;20034;-92
2023/04/23 03:26:40;;;;;;;3.63;1.50;;;15.30;60.60;;;;;;4970827;28;20299;-90
2023/04/23 03:29:06;;;;;;;6.13;1.50;;;15.30;60.80;;;;;;4965550;28;20034;-88
2023/04/23 03:31:32;;;;;;;3.88;1.55;;;15.30;61.10;;;;;;4962770;28;20451;-89
2023/04/23 03:33:58;;;;;;;2.58;1.48;;;15.30;61.30;;;;;;4976087;28;20034;-90
2023/04/23 03:36:23;;;;;;;3.38;1.70;;;15.30;61.40;;;;;;4986257;28;20477;-90
2023/04/23 03:38:49;;;;;;;4.28;1.38;;;15.30;61.50;;;;;;4971517;28;20022;-88
2023/04/23 03:41:15;;;;;;;2.53;1.50;;;15.30;61.70;;;;;;4970766;28;20506;-89
2023/04/23 03:43:41;;;;;;;2.20;1.20;;;15.30;62.00;;;;;;4970130;28;20038;-90
2023/04/23 03:46:06;;;;;;;3.00;1.33;;;15.30;62.00;;;;;;4971828;28;20026;-89
2023/04/23 03:48:32;;;;;;;2.92;1.48;;;15.30;62.00;;;;;;4967167;28;20515;-90
2023/04/23 03:50:58;;;;;;;3.10;1.63;;;15.20;62.20;;;;;;4970282;28;20475;-90
2023/04/23 03:53:24;;;;;;;4.82;1.92;;;15.20;62.10;;;;;;4960714;28;20045;-89
2023/04/23 03:55:49;;;;;;;2.67;1.65;;;15.20;62.40;;;;;;4970827;28;20034;-90
2023/04/23 03:58:16;;;;;;;3.75;1.45;;;15.10;62.70;;;;;;4966837;28;20463;-90
2023/04/23 04:00:42;;;;;;;4.65;1.67;;;15.10;63.10;;;;;;4965289;28;20049;-90
2023/04/23 04:03:08;;;;;;;2.53;1.55;;;15.00;63.30;;;;;;4973365;28;20038;-90
2023/04/23 04:05:34;;;;;;;5.55;1.83;;;15.00;63.40;;;;;;4969010;28;20022;-90
2023/04/23 04:08:00;;;;;;;7.22;1.90;;;15.00;63.70;;;;;;4974044;28;20030;-91
2023/04/23 04:10:26;;;;;;;3.30;1.40;;;15.00;63.90;;;;;;4972521;28;20123;-90
2023/04/23 04:12:54;;;;;;;3.92;1.55;;;15.00;64.30;;;;;;4972755;28;20470;-90
2023/04/23 04:15:19;;;;;;;2.65;1.45;;;15.00;64.50;;;;;;4973812;28;20050;-90
2023/04/23 04:17:46;;;;;;;3.42;1.80;;;15.00;64.50;;;;;;4972001;28;20026;-90
2023/04/23 04:20:12;;;;;;;4.05;1.92;;;14.90;64.50;;;;;;4968237;28;20458;-89
2023/04/23 04:22:38;;;;;;;2.65;1.40;;;14.90;64.40;;;;;;4971937;28;20117;-90
2023/04/23 04:25:04;;;;;;;5.15;3.13;;;14.90;64.40;;;;;;4970124;28;20490;-90
2023/04/23 04:27:33;;;;;;;4.68;3.03;;;14.90;64.60;;;;;;4963433;28;20042;-90
2023/04/23 04:30:04;;;;;;;6.60;3.13;;;14.90;64.70;;;;;;4969314;28;20080;-89
2023/04/23 04:32:31;;;;;;;6.45;2.78;;;14.80;65.00;;;;;;4968830;28;20498;-91
2023/04/23 04:34:56;;;;;;;4.78;2.65;;;14.80;65.10;;;;;;4966714;28;20038;-89
2023/04/23 04:37:22;;;;;;;3.90;2.60;;;14.80;65.20;;;;;;4967887;28;20029;-91
2023/04/23 04:39:48;;;;;;;5.97;2.30;;;14.80;65.20;;;;;;4964354;28;20390;-88
2023/04/23 04:42:14;;;;;;;5.57;2.28;;;14.80;65.30;;;;;;4970964;28;20034;-88
2023/04/23 04:44:42;;;;;;;5.95;2.28;;;14.80;65.30;;;;;;4967893;28;20042;-90
2023/04/23 04:47:08;;;;;;;5.57;2.08;;;14.80;65.40;;;;;;4969479;28;20057;-89
2023/04/23 04:49:33;;;;;;;3.13;1.77;;;14.70;65.50;;;;;;4970080;28;20026;-90
2023/04/23 04:52:00;;;;;;;5.00;1.52;;;14.70;65.60;;;;;;4964958;28;20026;-90
2023/04/23 04:54:25;;;;;;;6.80;1.85;;;14.70;65.80;;;;;;4975249;28;20030;-87
2023/04/23 04:56:51;;;;;;;3.50;2.15;;;14.70;65.90;;;;;;4977270;28;20034;-87
2023/04/23 04:59:17;;;;;;;3.35;1.75;;;14.70;66.00;;;;;;4967146;28;20045;-89
2023/04/23 05:01:43;;;;;;;3.63;2.20;;;14.70;66.20;;;;;;4966655;28;20058;-90
2023/04/23 05:04:09;;;;;;;2.60;1.80;;;14.70;66.40;;;;;;4967238;28;20023;-88
2023/04/23 05:06:34;;;;;;;3.80;2.15;;;14.70;66.40;;;;;;4969053;28;20033;-89
2023/04/23 05:09:00;;;;;;;4.35;2.22;;;14.70;66.10;;;;;;4967505;28;20130;-88
2023/04/23 05:11:26;;;;;;;4.30;2.28;;;14.70;66.00;;;;;;4968252;28;20031;-88
2023/04/23 05:13:52;;;;;;;4.05;2.10;;;14.70;66.20;;;;;;4974968;28;20042;-89
2023/04/23 05:16:18;;;;;;;4.50;2.30;;;14.70;66.30;;;;;;4978943;28;20046;-88
2023/04/23 05:18:44;;;;;;;5.55;1.70;;;14.70;66.50;;;;;;4969559;28;20183;-88
2023/04/23 05:21:09;;;;;;;7.32;2.20;;;14.70;66.70;;;;;;4959250;28;20582;-89
2023/04/23 05:23:35;;;;;;;2.50;1.75;;;14.70;66.90;;;;;;4965526;28;20157;-89
2023/04/23 05:26:04;;;;;;;3.35;1.90;;;14.60;66.90;;;;;;4967906;28;20119;-89
2023/04/23 05:28:30;;;;;;;5.30;2.35;;;14.70;67.00;;;;;;4966961;28;20090;-90
2023/04/23 05:30:57;;;;;;;2.28;1.77;;;14.70;67.20;;;;;;4968163;28;20058;-91
2023/04/23 05:33:23;;;;;;;2.95;1.90;;;14.70;67.30;;;;;;4965596;28;20387;-91
2023/04/23 05:35:48;;;;;;;4.68;1.85;;;14.70;67.40;;;;;;4968695;28;20066;-88
2023/04/23 05:38:14;;;;;;;4.93;1.85;;;14.70;67.40;;;;;;4960943;28;20365;-91
2023/04/23 05:40:40;;;;;;;6.25;1.88;;;14.70;67.40;;;;;;4958911;28;20065;-89
2023/04/23 05:43:06;;;;;;;4.10;2.00;;;14.70;67.40;;;;;;4963267;28;20062;-90
2023/04/23 05:45:32;;;;;;;8.10;2.20;;;14.70;67.30;;;;;;4962513;28;20034;-89
2023/04/23 05:47:58;;;;;;;3.97;1.70;;;14.70;67.30;;;;;;4961505;28;20621;-90
2023/04/23 05:50:25;;;;;;;3.70;1.98;;;14.70;67.30;;;;;;4968963;28;20078;-89
2023/04/23 05:52:50;;;;;;;6.15;2.35;;;14.80;67.40;;;;;;4960919;28;20041;-89
2023/04/23 05:55:17;;;;;;;3.92;2.08;;;14.80;67.40;;;;;;4968217;28;20109;-90
2023/04/23 05:57:43;;;;;;;5.38;2.00;;;14.80;67.50;;;;;;4966404;28;20472;-89
2023/04/23 06:00:10;;;;;;;6.53;2.10;;;14.80;67.60;;;;;;4952768;28;20050;-89
2023/04/23 06:02:36;;;;;;;5.78;1.88;;;14.70;67.60;;;;;;4960394;28;20117;-90
2023/04/23 06:05:03;;;;;;;3.25;2.13;;;14.80;67.70;;;;;;4970403;28;20030;-89
2023/04/23 06:07:28;;;;;;;4.38;2.50;;;14.80;67.70;;;;;;4963275;28;20381;-91
2023/04/23 06:09:54;;;;;;;2.72;2.13;;;14.70;67.70;;;;;;4962750;28;20038;-89
2023/04/23 06:12:20;;;;;;;8.15;2.72;;;14.70;67.80;;;;;;4958813;28;20027;-89
2023/04/23 06:14:46;;;;;;;9.48;2.80;;;14.80;67.80;;;;;;4965628;28;20134;-90
2023/04/23 06:17:12;;;;;;;6.65;2.53;;;14.80;67.80;;;;;;4962179;28;20363;-89
2023/04/23 06:19:38;;;;;;;3.63;2.40;;;14.80;67.80;;;;;;4960614;28;20697;-90
2023/04/23 06:22:04;;;;;;;3.38;2.08;;;14.80;67.80;;;;;;4970558;28;20030;-92
2023/04/23 06:24:52;;;;;;;4.75;2.20;;;14.80;67.70;;;;;;4972042;28;20038;-90
2023/04/23 06:27:18;;;;;;;3.65;2.20;;;14.80;67.80;;;;;;4968092;28;20041;-89
2023/04/23 06:29:46;;;;;;;3.13;2.42;;;14.90;67.60;;;;;;4970002;28;20360;-90
2023/04/23 06:32:12;;;;;;;5.30;2.30;;;14.90;67.80;;;;;;4948719;28;20033;-89
2023/04/23 06:34:37;;;;;;;3.85;2.67;;;14.90;67.60;;;;;;4962928;28;20039;-89
2023/04/23 06:37:03;;;;;;;4.30;3.03;;;15.00;67.60;;;;;;4964682;28;20487;-88
2023/04/23 06:39:29;;;;;;;3.63;2.50;;;14.90;67.50;;;;;;4965910;28;20543;-92
2023/04/23 06:41:57;;;;;;;4.45;2.40;;;14.90;67.40;;;;;;4964098;28;20032;-89
2023/04/23 06:44:28;;;;;;;3.22;2.35;;;14.90;67.50;;;;;;4950254;28;20118;-90
2023/04/23 06:46:55;;;;;;;7.90;2.70;;;15.00;68.20;;;;;;4976618;28;20061;-89
2023/04/23 06:49:20;;;;;;;3.45;2.50;;;15.00;68.10;;;;;;4985842;28;20033;-90
2023/04/23 06:51:47;;;;;;;4.68;2.75;;;15.00;68.10;;;;;;4989946;28;20102;-90
2023/04/23 06:54:13;;;;;;;7.25;2.42;;;15.10;68.20;;;;;;4987743;28;20145;-92
2023/04/23 06:56:38;;;;;;;5.32;2.22;;;15.10;68.10;;;;;;4989075;28;20041;-91
2023/04/23 06:59:05;;;;;;;3.95;2.40;;;15.20;68.10;;;;;;4982345;28;20038;-91
2023/04/23 07:01:31;;;;;;;4.32;2.75;;;15.20;68.20;;;;;;4992962;28;20094;-90
2023/04/23 07:03:57;;;;;;;4.57;3.00;;;15.30;68.30;;;;;;4988463;28;20031;-90
2023/04/23 07:06:22;;;;;;;5.35;2.70;;;15.30;68.20;;;;;;4967975;28;20057;-90
2023/04/23 07:08:48;;;;;;;9.50;2.72;;;15.40;68.10;;;;;;4971609;28;20110;-90
2023/04/23 07:11:14;;;;;;;7.43;3.10;;;15.40;68.00;;;;;;4970595;28;20026;-89
2023/04/23 07:13:41;;;;;;;4.28;3.17;;;15.50;68.10;;;;;;4972916;28;20026;-91
2023/04/23 07:16:06;;;;;;;6.57;3.00;;;15.50;68.20;;;;;;4971994;28;20463;-89
2023/04/23 07:18:32;;;;;;;5.30;3.03;;;15.50;68.20;;;;;;4970174;28;20117;-89
2023/04/23 07:20:58;;;;;;;4.80;2.90;;;15.60;68.10;;;;;;4971549;28;20054;-89
2023/04/23 07:23:24;;;;;;;8.48;3.95;;;15.70;68.00;;;;;;4970263;28;20042;-90
2023/04/23 07:25:49;;;;;;;10.13;3.40;;;15.80;68.00;;;;;;4975800;28;20038;-89
2023/04/23 07:28:15;;;;;;;5.05;3.70;;;15.80;67.90;;;;;;4973019;28;20073;-90
2023/04/23 07:30:41;;;;;;;5.45;3.97;;;15.90;67.90;;;;;;4967164;28;20039;-89
2023/04/23 07:33:07;;;;;;;5.30;3.78;;;16.00;67.50;;;;;;4968171;28;20084;-91
2023/04/23 07:35:32;;;;;;;6.32;3.60;;;16.00;67.30;;;;;;4977849;28;20037;-89
2023/04/23 07:37:58;;;;;;;4.78;3.90;;;16.00;67.20;;;;;;4985423;28;20061;-90
2023/04/23 07:40:24;;;;;;;8.90;3.40;;;16.10;67.00;;;;;;4965182;28;20038;-90
2023/04/23 07:42:51;;;;;;;7.93;3.80;;;16.10;66.50;;;;;;4973041;28;20117;-90
2023/04/23 07:45:17;;;;;;;6.38;3.70;;;16.10;66.80;;;;;;4971337;28;20100;-90
2023/04/23 07:47:44;;;;;;;3.92;3.17;;;16.10;66.90;;;;;;4972808;28;20597;-90
2023/04/23 07:50:10;;;;;;;4.63;3.25;;;16.10;67.00;;;;;;4971275;28;20042;-90
2023/04/23 07:52:36;;;;;;;5.57;2.92;;;16.10;67.00;;;;;;4972884;28;20455;-90
2023/04/23 07:55:02;;;;;;;5.57;3.05;;;16.20;67.20;;;;;;4973707;28;20048;-90
2023/04/23 07:57:28;;;;;;;4.45;3.13;;;16.20;67.40;;;;;;4963239;28;20022;-90
2023/04/23 07:59:54;;;;;;;5.55;3.15;;;16.30;67.60;;;;;;4971043;28;20395;-88
2023/04/23 08:02:24;;;;;;;5.18;3.15;;;16.30;67.40;;;;;;4974157;28;20034;-88
2023/04/23 08:04:50;;;;;;;6.85;3.22;;;16.40;67.80;;;;;;4972495;28;20049;-90
2023/04/23 08:07:16;;;;;;;7.60;3.15;;;16.50;67.80;;;;;;4970837;28;20403;-89
2023/04/23 08:09:42;;;;;;;6.75;3.05;;;16.60;68.00;;;;;;4967476;28;20053;-89
2023/04/23 08:12:07;;;;;;;3.60;3.03;;;16.70;68.20;;;;;;4970330;28;20085;-89
2023/04/23 08:14:33;;;;;;;3.88;2.70;;;16.90;68.10;;;;;;4968075;28;20049;-90
2023/04/23 08:16:59;;;;;;;3.13;2.70;;;17.10;66.70;;;;;;4969932;28;20026;-92
2023/04/23 08:19:30;;;;;;;4.07;3.03;;;17.30;66.30;;;;;;4974619;28;20030;-90
2023/04/23 08:21:56;;;;;;;3.60;2.55;;;17.40;65.50;;;;;;4970455;28;20030;-90
2023/04/23 08:24:22;;;;;;;3.47;2.30;;;17.50;65.00;;;;;;4973770;28;20030;-90
2023/04/23 08:26:47;;;;;;;3.00;2.17;;;17.50;64.30;;;;;;4973746;28;20484;-90
2023/04/23 08:29:13;;;;;;;5.03;2.42;;;17.60;64.10;;;;;;4969050;28;20034;-90
2023/04/23 08:31:39;;;;;;;2.78;2.30;;;17.60;63.60;;;;;;4972956;28;20050;-90
2023/04/23 08:34:05;;;;;;;3.67;1.80;;;17.70;63.50;;;;;;4970416;28;20042;-90
2023/04/23 08:36:31;;;;;;;1.92;1.55;;;17.70;63.50;;;;;;4974823;28;20491;-90
2023/04/23 08:38:57;;;;;;;3.17;2.00;;;17.80;63.40;;;;;;4973268;28;20030;-89
2023/04/23 08:41:28;;;;;;;1.88;1.60;;;17.90;63.50;;;;;;4981151;28;20031;-88
2023/04/23 08:43:59;;;;;;;3.42;2.00;;;18.00;63.40;;;;;;4985936;28;20030;-89
2023/04/23 08:46:30;;;;;;;2.63;1.85;;;18.20;63.70;;;;;;4971881;28;20026;-89
2023/04/23 08:48:59;;;;;;;7.45;2.08;;;18.50;63.60;;;;;;4978287;28;20119;-91
2023/04/23 08:51:29;;;;;;;1.63;1.42;;;18.70;62.80;;;;;;4983168;28;20026;-91
2023/04/23 08:53:58;;;;;;;4.45;1.70;;;18.80;61.50;;;;;;4977961;28;20038;-89
2023/04/23 08:56:25;;;;;;;2.40;1.60;;;18.90;60.60;;;;;;4959783;28;20035;-90
2023/04/23 08:58:52;;;;;;;2.92;1.55;;;19.00;60.20;;;;;;4968606;28;20038;-90
2023/04/23 09:01:18;;;;;;;2.05;1.50;;;19.00;60.20;;;;;;4973392;28;20070;-90
2023/04/23 09:03:45;;;;;;;1.75;1.42;;;19.00;60.20;;;;;;4969870;28;20546;-89
2023/04/23 09:06:11;;;;;;;3.70;1.80;;;19.00;60.30;;;;;;4964878;28;20050;-90
2023/04/23 09:08:37;;;;;;;3.33;1.73;;;18.90;59.60;;;;;;4967045;28;20137;-90
2023/04/23 09:11:04;;;;;;;3.75;1.50;;;18.80;59.30;;;;;;4968038;28;20427;-91
2023/04/23 09:13:30;;;;;;;2.05;1.35;;;18.70;59.20;;;;;;4968180;28;20129;-90
2023/04/23 09:15:56;;;;;;;1.65;1.10;;;18.60;59.20;;;;;;4971637;28;20031;-92
2023/04/23 09:18:22;;;;;;;1.83;1.20;;;18.50;59.10;;;;;;4971172;28;20121;-90
2023/04/23 09:20:49;;;;;;;1.85;1.35;;;18.40;59.10;;;;;;4972469;28;20061;-89
2023/04/23 09:23:15;;;;;;;1.98;1.23;;;18.40;59.20;;;;;;4971207;28;20030;-90
2023/04/23 09:25:41;;;;;;;1.75;1.27;;;18.30;59.20;;;;;;4968929;28;20032;-90
2023/04/23 09:28:09;;;;;;;1.80;1.20;;;18.30;59.60;;;;;;4972872;28;20026;-90
2023/04/23 09:30:43;;;;;;;3.53;1.77;;;18.30;59.60;;;;;;4980113;28;20030;-90
2023/04/23 09:33:15;;;;;;;3.42;1.83;;;18.30;59.60;;;;;;4972598;28;20034;-90
2023/04/23 09:35:42;;;;;;;3.28;1.30;;;18.30;59.70;;;;;;4961987;28;20043;-90
2023/04/23 09:40:51;;;;;;;1.35;1.15;;;18.30;58.90;;;;;;4977654;28;20050;-62
2023/04/23 09:43:17;;;;;;;2.00;1.30;;;18.40;59.30;;;;;;4978248;28;20037;-62
2023/04/23 09:45:51;;;;;;;1.63;1.40;;;18.50;59.20;;;;;;4982241;28;20090;-63
2023/04/23 09:48:17;;;;;;;4.13;1.35;;;18.60;58.90;;;;;;4981615;28;20110;-63
2023/04/23 09:50:42;;;;;;;4.07;1.38;;;18.70;58.90;;;;;;4988484;28;20501;-63
2023/04/23 09:53:11;;;;;;;1.77;1.30;;;18.80;58.80;;;;;;4988574;28;20090;-63
2023/04/23 09:55:39;;;;;;;2.35;1.10;;;18.90;58.20;;;;;;4980940;28;20034;-62
2023/04/23 09:58:09;;;;;;;3.75;1.65;;;18.90;58.10;;;;;;4983744;28;20034;-62
2023/04/23 10:00:36;;;;;;;1.50;0.93;;;19.00;58.00;;;;;;4980459;28;20027;-63
2023/04/23 10:03:03;;;;;;;1.85;0.73;;;19.00;57.20;;;;;;4989421;28;20398;-63
2023/04/23 10:05:28;;;;;;;2.05;1.10;;;19.10;57.20;;;;;;4983453;28;20030;-63
2023/04/23 10:07:58;;;;;;;1.50;1.00;;;19.10;57.40;;;;;;4978456;28;20022;-63
2023/04/23 10:10:24;;;;;;;3.40;1.00;;;19.20;57.20;;;;;;4975920;28;20031;-62
2023/04/23 10:12:55;;;;;;;1.67;0.85;;;19.20;57.10;;;;;;4974084;28;20022;-62
2023/04/23 10:15:25;;;;;;;1.90;0.90;;;19.30;56.90;;;;;;4985504;28;20054;-63
2023/04/23 10:17:52;;;;;;;1.45;0.90;;;19.30;56.60;;;;;;4982533;28;20082;-62
2023/04/23 10:20:20;;;;;;;2.53;0.75;;;19.40;56.90;;;;;;4982888;28;22160;-63
2023/04/23 10:22:47;;;;;;;1.25;1.00;;;19.40;56.40;;;;;;4976736;28;20034;-64
2023/04/23 10:25:13;;;;;;;1.65;1.00;;;19.50;56.20;;;;;;4981995;28;20090;-62
2023/04/23 10:27:45;;;;;;;0.98;0.80;;;19.50;56.00;;;;;;4980168;28;20466;-62
2023/04/23 10:30:12;;;;;;;1.38;1.20;;;19.40;55.80;;;;;;4990395;28;20045;-63
2023/04/23 10:32:38;;;;;;;1.10;1.00;;;19.40;55.70;;;;;;4978932;28;20393;-63
2023/04/23 10:35:06;;;;;;;6.00;1.15;;;19.30;55.00;;;;;;4979712;28;20047;-62
2023/04/23 10:37:33;;;;;;;1.13;0.98;;;19.20;55.50;;;;;;4981967;28;20050;-63
2023/04/23 10:40:10;;;;;;;2.78;0.98;;;19.20;55.40;;;;;;4987136;28;20069;-62
2023/04/23 10:42:38;;;;;;;1.65;1.08;;;19.10;55.20;;;;;;4987396;28;20354;-63
2023/04/23 10:45:13;;;;;;;1.75;1.13;;;19.10;55.30;;;;;;4981745;28;20045;-62
2023/04/23 10:47:42;;;;;;;1.83;0.88;;;19.10;55.60;;;;;;4984119;28;20102;-63
2023/04/23 10:50:29;;;;;;;2.92;1.30;;;19.10;55.30;;;;;;4981982;28;20027;-63
2023/04/23 10:52:56;;;;;;;3.72;0.95;;;19.20;55.40;;;;;;4981396;28;20658;-62
2023/04/23 10:55:27;;;;;;;1.25;1.15;;;19.20;55.70;;;;;;4983669;28;20065;-63
2023/04/23 10:58:04;;;;;;;3.17;1.35;;;19.30;55.20;;;;;;4984511;28;20023;-62
2023/04/23 11:00:42;;;;;;;1.27;1.05;;;19.40;55.00;;;;;;4981160;28;20019;-62
2023/04/23 11:03:38;;;;;;;1.63;1.20;;;19.50;54.70;;;;;;4981521;28;20022;-64
2023/04/23 11:06:05;;;;;;;1.58;1.10;;;19.70;55.20;;;;;;4976271;28;20061;-64
2023/04/23 11:08:33;;;;;;;1.98;1.00;;;19.80;55.30;;;;;;4979614;28;20066;-64
2023/04/23 11:11:00;;;;;;;1.20;1.08;;;19.90;55.50;;;;;;4982462;28;20029;-63
2023/04/23 11:13:28;;;;;;;1.38;1.20;;;20.00;55.50;;;;;;4982585;28;20030;-64
2023/04/23 11:16:17;;;;;;;2.10;1.40;;;20.10;55.40;;;;;;4983252;28;20097;-64
2023/04/23 11:18:58;;;;;;;1.02;0.85;;;20.30;54.00;;;;;;4980825;28;20024;-63
2023/04/23 11:21:59;;;;;;;0.77;0.70;;;20.50;52.70;;;;;;4982564;28;20031;-64
2023/04/23 11:24:31;;;;;;;1.00;0.68;;;20.70;53.30;;;;;;4984253;28;20026;-62
2023/04/23 11:26:57;;;;;;;1.25;0.93;;;20.80;53.50;;;;;;4994186;28;20030;-64
2023/04/23 11:29:25;;;;;;;0.80;0.80;;;21.00;53.10;;;;;;4984391;28;20113;-62
2023/04/23 11:31:53;;;;;;;1.75;0.98;;;21.10;52.20;;;;;;4981092;28;20422;-61
2023/04/23 11:34:21;;;;;;;0.93;0.80;;;21.10;51.90;;;;;;4992399;28;20047;-62
2023/04/23 11:36:50;;;;;;;1.35;0.80;;;21.20;51.80;;;;;;4986957;28;20023;-62
2023/04/23 11:39:17;;;;;;;1.52;0.73;;;21.20;51.60;;;;;;4980926;28;20059;-62
2023/04/23 11:41:45;;;;;;;2.53;0.70;;;21.20;51.30;;;;;;4984350;28;20368;-62
2023/04/23 11:44:11;;;;;;;1.55;0.70;;;21.20;50.50;;;;;;4983379;28;20035;-63
2023/04/23 11:46:37;;;;;;;1.17;0.90;;;21.20;51.10;;;;;;4985793;28;20023;-62
2023/04/23 11:49:03;;;;;;;4.38;0.70;;;21.20;52.00;;;;;;4980151;28;20398;-64
2023/04/23 11:51:29;;;;;;;2.60;1.08;;;21.30;52.20;;;;;;4982218;28;20019;-65
2023/04/23 11:54:02;;;;;;;1.30;0.80;;;21.40;52.10;;;;;;4990821;28;20035;-63
2023/04/23 11:56:31;;;;;;;6.55;2.47;;;21.50;51.00;;;;;;4982247;28;20055;-62
2023/04/23 11:59:04;;;;;;;5.72;3.38;;;21.60;50.80;;;;;;4987051;28;20469;-63
2023/04/23 12:01:45;;;;;;;2.05;1.20;;;21.70;50.40;;;;;;4987942;28;20019;-64
2023/04/23 12:04:17;;;;;;;5.22;3.47;;;21.70;49.30;;;;;;4997965;28;20026;-65
2023/04/23 12:06:45;;;;;;;3.15;1.58;;;21.60;49.20;;;;;;4996382;28;20022;-63
2023/04/23 12:09:12;;;;;;;1.75;1.10;;;21.50;49.60;;;;;;4987279;28;20027;-64
2023/04/23 12:11:39;;;;;;;2.33;1.63;;;21.50;50.30;;;;;;4988093;28;20031;-64
2023/04/23 12:14:07;;;;;;;3.13;0.90;;;21.50;50.50;;;;;;4984151;28;20089;-63
2023/04/23 12:16:44;;;;;;;0.82;0.70;;;21.50;50.30;;;;;;4990491;28;20031;-64
2023/04/23 12:19:19;;;;;;;0.95;0.77;;;21.50;50.20;;;;;;4977076;28;20042;-62
2023/04/23 12:21:58;;;;;;;2.15;0.90;;;21.60;49.80;;;;;;4983187;28;20029;-63
2023/04/23 12:24:27;;;;;;;0.90;0.80;;;21.60;49.60;;;;;;4981067;28;20057;-63
2023/04/23 12:26:59;;;;;;;1.23;0.80;;;21.60;49.20;;;;;;4982190;28;20071;-64
2023/04/23 12:29:25;;;;;;;0.90;0.70;;;21.60;50.10;;;;;;4979107;28;20055;-61
2023/04/23 12:31:52;;;;;;;1.10;0.90;;;21.60;50.50;;;;;;4986345;28;20094;-64
2023/04/23 12:34:20;;;;;;;2.05;0.93;;;21.60;49.90;;;;;;4982324;28;20096;-64
2023/04/23 12:36:51;;;;;;;1.50;0.80;;;21.70;50.00;;;;;;4985760;28;20018;-65
2023/04/23 12:39:30;;;;;;;2.22;0.90;;;21.70;50.00;;;;;;4988603;28;20145;-64
2023/04/23 12:41:56;;;;;;;1.38;0.60;;;21.80;50.20;;;;;;4985777;28;20033;-64
2023/04/23 12:44:22;;;;;;;0.73;0.70;;;21.90;50.30;;;;;;4978969;28;20027;-64
2023/04/23 12:46:59;;;;;;;0.90;0.70;;;22.10;50.60;;;;;;4984464;28;20034;-64
2023/04/23 12:49:26;;;;;;;1.35;0.60;;;22.20;50.00;;;;;;4985516;28;20131;-63